Time;durP1;ratioP1;P1;durP2;ratioP2;P2;SDS_P1;SDS_P2;PMS_P1;PMS_P2;Temp;Humidity;BMP_temperature;BMP_pressure;BME280_temperature;BME280_humidity;BME280_pressure;Samples;Min_cycle;Max_cycle;Signal;HPM_P1;HPM_P2
2022/01/30 00:01:53;;;;;;;23.85;13.43;;;;;;;12.02;44.96;101740.72;4995405;28;20489;-78
2022/01/30 00:04:21;;;;;;;23.85;15.15;;;;;;;11.95;43.68;101736.97;5000943;28;20098;-77
2022/01/30 00:06:51;;;;;;;24.58;15.90;;;;;;;11.89;44.35;101732.47;5008707;28;20085;-77
2022/01/30 00:09:22;;;;;;;25.85;15.15;;;;;;;11.89;44.93;101735.06;5013458;28;20104;-77
2022/01/30 00:11:54;;;;;;;21.60;13.90;;;;;;;11.90;44.91;101729.03;5012040;28;20068;-80
2022/01/30 00:14:24;;;;;;;;;;;;;;;11.89;45.20;101739.34;5000955;28;20472;-78
2022/01/30 00:16:58;;;;;;;26.80;14.68;;;;;;;11.87;44.38;101731.50;4999556;28;19950;-77
2022/01/30 00:19:33;;;;;;;22.85;13.27;;;;;;;11.81;45.57;101730.34;5004460;28;20042;-78
2022/01/30 00:22:15;;;;;;;23.90;14.90;;;;;;;11.76;47.09;101730.16;5011843;28;20054;-77
2022/01/30 00:24:50;;;;;;;22.25;14.23;;;;;;;11.72;45.47;101729.13;5001111;28;20142;-72
2022/01/30 00:27:25;;;;;;;20.63;13.65;;;;;;;11.68;46.47;101723.75;5012165;28;20476;-73
2022/01/30 00:29:54;;;;;;;25.90;15.85;;;;;;;11.65;46.68;101728.84;5006193;28;20049;-74
2022/01/30 00:32:23;;;;;;;24.65;15.05;;;;;;;11.59;46.45;101718.22;4996354;28;20105;-73
2022/01/30 00:34:51;;;;;;;29.17;16.35;;;;;;;11.62;46.10;101726.13;5011943;28;20089;-76
2022/01/30 00:37:22;;;;;;;27.95;16.98;;;;;;;11.58;45.81;101725.09;4998605;28;20451;-76
2022/01/30 00:39:50;;;;;;;26.85;16.63;;;;;;;11.55;45.74;101729.28;5007093;28;20054;-76
2022/01/30 00:42:20;;;;;;;23.85;16.00;;;;;;;11.50;45.88;101726.53;4991944;28;20043;-76
2022/01/30 00:44:49;;;;;;;27.02;17.30;;;;;;;11.46;46.91;101734.97;5008607;28;20050;-76
2022/01/30 00:47:17;;;;;;;26.63;15.48;;;;;;;11.38;46.43;101726.88;5011203;28;20081;-76
2022/01/30 00:49:46;;;;;;;23.00;15.18;;;;;;;11.24;46.76;101734.06;5011435;28;20100;-75
2022/01/30 00:52:16;;;;;;;22.40;13.98;;;;;;;11.13;47.22;101735.31;4992622;28;20125;-76
2022/01/30 00:54:46;;;;;;;19.92;13.88;;;;;;;11.03;47.66;101739.22;5004098;28;20535;-76
2022/01/30 00:57:15;;;;;;;22.25;13.90;;;;;;;11.00;49.10;101743.41;5011947;28;20051;-76
2022/01/30 00:59:43;;;;;;;22.50;12.80;;;;;;;10.93;49.25;101738.78;5000479;28;20144;-76
2022/01/30 01:02:12;;;;;;;23.85;13.48;;;;;;;10.88;49.18;101741.13;5008534;28;20054;-76
2022/01/30 01:04:40;;;;;;;25.90;14.20;;;;;;;10.81;49.28;101736.50;5001829;28;20459;-75
2022/01/30 01:07:14;;;;;;;21.58;13.75;;;;;;;10.77;49.53;101739.78;4997746;28;20077;-76
2022/01/30 01:09:50;;;;;;;24.98;12.95;;;;;;;10.68;49.95;101740.25;5011936;28;20045;-76
2022/01/30 01:20:59;;;;;;;21.05;11.43;;;;;;;10.23;50.55;101733.00;4992443;28;20062;-75
2022/01/30 01:23:30;;;;;;;18.17;11.30;;;;;;;10.04;50.50;101720.06;4991654;28;20046;-76
2022/01/30 01:25:59;;;;;;;19.33;11.15;;;;;;;9.99;51.90;101726.72;5006986;28;20112;-73
2022/01/30 01:28:30;;;;;;;22.58;12.10;;;;;;;9.88;52.19;101725.31;5004175;28;20046;-73
2022/01/30 01:30:59;;;;;;;20.10;11.07;;;;;;;9.76;50.95;101728.19;4991930;28;20085;-74
2022/01/30 01:33:36;;;;;;;21.98;10.82;;;;;;;9.63;51.12;101729.28;5005592;28;20047;-75
2022/01/30 01:36:05;;;;;;;20.80;10.25;;;;;;;9.49;51.57;101727.72;4994782;28;20495;-74
2022/01/30 01:38:33;;;;;;;19.90;11.27;;;;;;;9.39;52.11;101723.78;4993262;28;20050;-76
2022/01/30 01:41:02;;;;;;;28.08;12.80;;;;;;;9.27;51.61;101720.59;5004467;28;20046;-76
2022/01/30 01:43:32;;;;;;;24.13;12.38;;;;;;;9.19;52.52;101717.66;4992136;28;20046;-74
2022/01/30 01:46:01;;;;;;;23.10;13.52;;;;;;;9.08;53.66;101726.53;4991767;28;20673;-77
2022/01/30 01:48:33;;;;;;;27.30;13.57;;;;;;;8.95;53.97;101725.88;4991453;28;20050;-76
2022/01/30 01:51:14;;;;;;;22.50;12.75;;;;;;;8.86;53.94;101724.53;4991666;28;20043;-77
2022/01/30 01:53:42;;;;;;;20.55;12.35;;;;;;;8.68;53.84;101721.88;4995821;28;20081;-76
2022/01/30 01:56:11;;;;;;;23.00;11.23;;;;;;;8.47;55.80;101725.09;5010438;28;20046;-77
2022/01/30 01:58:41;;;;;;;22.77;12.95;;;;;;;8.36;59.64;101731.31;5010736;28;20082;-76
2022/01/30 02:01:09;;;;;;;21.95;12.23;;;;;;;8.31;60.17;101728.50;5001260;28;20151;-76
2022/01/30 02:03:38;;;;;;;23.73;11.68;;;;;;;8.19;60.49;101733.88;4996085;28;20124;-76
2022/01/30 02:06:11;;;;;;;25.77;12.27;;;;;;;8.15;59.47;101739.69;5010981;28;20116;-77
2022/01/30 02:08:42;;;;;;;27.40;12.35;;;;;;;8.06;59.57;101726.28;4997221;28;20070;-76
2022/01/30 02:11:14;;;;;;;26.40;13.27;;;;;;;8.01;59.98;101735.44;4990896;28;20134;-75
2022/01/30 02:14:11;;;;;;;22.35;12.32;;;;;;;7.95;60.57;101727.41;4991082;28;20703;-75
2022/01/30 02:25:14;;;;;;;20.35;10.70;;;;;;;7.64;63.39;101740.22;4997454;28;20069;-75
2022/01/30 02:27:43;;;;;;;19.88;10.63;;;;;;;7.54;64.01;101747.44;5010072;28;20050;-74
2022/01/30 02:30:14;;;;;;;32.15;13.32;;;;;;;7.45;63.53;101746.03;5008720;28;20042;-75
2022/01/30 02:32:43;;;;;;;22.20;12.05;;;;;;;7.38;62.88;101747.34;4990252;28;20138;-76
2022/01/30 02:35:11;;;;;;;22.70;12.25;;;;;;;7.31;63.02;101753.81;4989933;28;20050;-75
2022/01/30 02:37:42;;;;;;;22.33;10.80;;;;;;;7.26;63.00;101755.25;5005606;28;20105;-74
2022/01/30 02:40:13;;;;;;;26.67;12.38;;;;;;;7.22;63.93;101744.69;5009667;28;20483;-75
2022/01/30 02:42:47;;;;;;;32.83;15.55;;;;;;;7.16;63.54;101749.47;5009210;28;20081;-74
2022/01/30 02:45:17;;;;;;;45.22;17.45;;;;;;;7.09;63.35;101743.94;5010310;28;20049;-74
2022/01/30 02:47:57;;;;;;;29.20;15.43;;;;;;;7.01;63.38;101744.28;5009907;28;20060;-74
2022/01/30 02:50:36;;;;;;;35.42;16.17;;;;;;;6.98;63.42;101754.38;5009709;28;20050;-75
2022/01/30 02:53:09;;;;;;;32.90;16.05;;;;;;;6.94;63.63;101748.19;5008948;28;20082;-74
2022/01/30 02:55:38;;;;;;;42.55;16.23;;;;;;;6.87;64.10;101757.22;4998253;28;20495;-74
2022/01/30 02:58:07;;;;;;;39.00;17.88;;;;;;;6.80;64.35;101755.03;5012679;28;20053;-74
2022/01/30 03:00:36;;;;;;;44.30;18.85;;;;;;;6.75;64.56;101756.47;4996843;28;20053;-74
2022/01/30 03:03:04;;;;;;;35.90;18.23;;;;;;;6.68;63.94;101755.19;4997867;28;20104;-74
2022/01/30 03:05:33;;;;;;;36.70;14.93;;;;;;;6.54;64.35;101747.44;5007600;28;20547;-74
2022/01/30 03:08:01;;;;;;;37.22;15.43;;;;;;;6.46;64.74;101750.44;5009267;28;20128;-74
2022/01/30 03:10:32;;;;;;;29.80;14.30;;;;;;;6.40;65.27;101744.91;4994443;28;20050;-74
2022/01/30 03:13:00;;;;;;;33.50;15.73;;;;;;;6.33;67.08;101753.03;4989955;28;20104;-74
2022/01/30 03:15:29;;;;;;;29.20;13.07;;;;;;;6.24;67.99;101745.63;4991068;28;20499;-74
2022/01/30 03:17:57;;;;;;;29.83;15.13;;;;;;;6.18;68.11;101745.22;4989265;28;20050;-74
2022/01/30 03:20:26;;;;;;;40.67;18.70;;;;;;;6.10;68.18;101743.00;5009319;28;20085;-74
2022/01/30 03:22:54;;;;;;;56.42;25.27;;;;;;;6.08;67.61;101756.63;4990006;28;20046;-74
2022/01/30 03:25:23;;;;;;;54.90;24.20;;;;;;;6.04;67.72;101757.19;5001744;28;20332;-75
2022/01/30 03:27:53;;;;;;;54.97;25.30;;;;;;;6.02;67.73;101758.78;5001091;28;20046;-75
2022/01/30 03:30:27;;;;;;;62.97;27.33;;;;;;;6.00;68.20;101755.25;5008024;28;20144;-75
2022/01/30 03:32:56;;;;;;;62.78;26.58;;;;;;;5.96;68.02;101758.41;4997997;28;20054;-74
2022/01/30 03:35:25;;;;;;;62.33;27.73;;;;;;;5.93;68.48;101763.28;5008964;28;20508;-74
2022/01/30 03:37:54;;;;;;;51.05;25.85;;;;;;;5.90;68.68;101767.38;5003208;28;20492;-75
2022/01/30 03:40:22;;;;;;;46.05;22.63;;;;;;;5.84;68.48;101763.63;4999355;28;20050;-74
2022/01/30 03:42:52;;;;;;;54.47;22.75;;;;;;;5.79;68.53;101764.09;5010072;28;20042;-75
2022/01/30 03:45:21;;;;;;;49.80;21.95;;;;;;;5.73;68.59;101754.31;5002630;28;20058;-76
2022/01/30 03:47:51;;;;;;;51.92;24.73;;;;;;;5.63;68.50;101760.50;5013208;28;20124;-75
2022/01/30 03:50:19;;;;;;;44.42;20.92;;;;;;;5.55;69.46;101756.56;5013089;28;20042;-75
2022/01/30 03:52:48;;;;;;;44.58;21.10;;;;;;;5.48;69.17;101756.97;5012825;28;20121;-75
2022/01/30 03:55:17;;;;;;;43.72;20.08;;;;;;;5.43;69.11;101764.34;5014847;28;20315;-74
2022/01/30 03:57:45;;;;;;;44.85;19.27;;;;;;;5.37;69.74;101760.50;5014336;28;20045;-74
2022/01/30 04:00:17;;;;;;;39.10;19.45;;;;;;;5.30;69.69;101766.88;5012840;28;20657;-75
2022/01/30 04:02:45;;;;;;;38.20;17.98;;;;;;;5.24;69.31;101763.91;5003624;28;20050;-74
2022/01/30 04:05:14;;;;;;;27.38;14.43;;;;;;;5.19;70.06;101765.28;4994868;28;20109;-74
2022/01/30 04:07:43;;;;;;;30.50;14.07;;;;;;;5.14;70.67;101764.09;5006040;28;20104;-75
2022/01/30 04:10:12;;;;;;;29.20;14.63;;;;;;;5.12;70.70;101766.53;4993240;28;20498;-75
2022/01/30 04:12:41;;;;;;;25.02;12.48;;;;;;;5.08;71.10;101763.66;4994369;28;20069;-75
2022/01/30 04:15:11;;;;;;;23.45;11.50;;;;;;;5.03;71.04;101759.09;5004802;28;20054;-74
2022/01/30 04:17:42;;;;;;;19.58;10.52;;;;;;;5.00;70.83;101755.47;4994863;28;20074;-74
2022/01/30 04:20:11;;;;;;;22.27;11.05;;;;;;;4.98;70.86;101757.03;5009722;28;20045;-74
2022/01/30 04:22:40;;;;;;;20.83;10.38;;;;;;;4.95;71.21;101759.41;4998675;28;20143;-74
2022/01/30 04:25:09;;;;;;;22.13;9.40;;;;;;;4.92;71.37;101751.47;5012389;28;20423;-74
2022/01/30 04:27:37;;;;;;;20.15;11.07;;;;;;;4.87;71.00;101752.84;5005099;28;20112;-74
2022/01/30 04:30:09;;;;;;;20.23;9.40;;;;;;;4.78;71.87;101755.66;5005764;28;20049;-74
2022/01/30 04:32:41;;;;;;;22.17;10.35;;;;;;;4.73;72.38;101760.47;5006351;28;20069;-74
2022/01/30 04:35:17;;;;;;;23.30;9.90;;;;;;;4.70;71.59;101760.28;5005322;28;20149;-74
2022/01/30 04:37:58;;;;;;;27.92;10.65;;;;;;;4.67;72.22;101760.03;5006292;28;20049;-74
2022/01/30 04:57:47;;;;;;;24.02;10.20;;;;;;;4.25;74.54;101774.19;4958107;28;20219;-74
2022/01/30 05:00:35;;;;;;;19.60;9.27;;;;;;;4.16;76.05;101773.53;4997718;28;20054;-74
2022/01/30 05:03:20;;;;;;;33.35;11.70;;;;;;;4.12;76.61;101776.66;4991429;28;20728;-74
2022/01/30 05:05:58;;;;;;;24.70;10.32;;;;;;;4.09;77.19;101781.56;4999477;28;20054;-74
2022/01/30 05:08:29;;;;;;;26.55;13.10;;;;;;;4.07;76.77;101781.44;5011377;28;20061;-74
2022/01/30 05:10:57;;;;;;;27.25;12.73;;;;;;;4.05;76.18;101782.13;4997267;28;20054;-74
2022/01/30 05:13:30;;;;;;;31.88;14.60;;;;;;;3.98;76.59;101778.22;4999218;28;20050;-73
2022/01/30 05:15:59;;;;;;;22.20;10.35;;;;;;;3.95;75.87;101784.00;5005877;28;20046;-73
2022/01/30 05:18:29;;;;;;;19.98;10.90;;;;;;;3.92;76.06;101783.81;4994940;28;20096;-73
2022/01/30 05:21:04;;;;;;;25.25;12.05;;;;;;;3.90;76.30;101780.22;5010651;28;20112;-75
2022/01/30 05:23:35;;;;;;;17.92;9.70;;;;;;;3.88;76.66;101780.91;4991559;28;20050;-74
2022/01/30 05:26:09;;;;;;;18.73;10.07;;;;;;;3.73;75.40;101776.44;5005599;28;20100;-74
2022/01/30 05:28:38;;;;;;;23.60;9.70;;;;;;;3.60;77.50;101775.41;4998945;28;20054;-74
2022/01/30 05:31:07;;;;;;;31.10;12.32;;;;;;;3.56;78.41;101788.00;4992937;28;20050;-75
2022/01/30 05:33:36;;;;;;;26.50;12.15;;;;;;;3.57;78.95;101794.00;4991689;28;20050;-75
2022/01/30 05:36:05;;;;;;;25.42;13.20;;;;;;;3.47;77.95;101774.50;5003807;28;20132;-74
2022/01/30 05:38:36;;;;;;;33.58;14.38;;;;;;;3.56;78.12;101793.09;5009916;28;20054;-74
2022/01/30 05:41:05;;;;;;;29.25;13.10;;;;;;;3.57;78.78;101799.09;4997696;28;20050;-75
2022/01/30 05:43:34;;;;;;;28.00;13.13;;;;;;;3.58;78.52;101810.25;5010688;28;20491;-75
2022/01/30 05:46:11;;;;;;;28.33;13.55;;;;;;;3.59;81.20;101814.59;5010442;28;20125;-75
2022/01/30 05:48:41;;;;;;;27.10;12.70;;;;;;;3.60;84.47;101813.78;4999107;28;20046;-75
2022/01/30 05:51:09;;;;;;;27.05;12.55;;;;;;;3.56;81.66;101808.47;4997433;28;20054;-76
2022/01/30 05:53:40;;;;;;;26.88;12.18;;;;;;;3.56;81.05;101817.81;4994857;28;20045;-75
2022/01/30 05:56:11;;;;;;;28.95;15.15;;;;;;;3.55;81.75;101816.00;5012997;28;20050;-75
2022/01/30 05:58:39;;;;;;;29.83;15.70;;;;;;;3.54;82.81;101825.38;4997075;28;20054;-75
2022/01/30 06:01:08;;;;;;;29.30;14.82;;;;;;;3.56;81.52;101817.81;5010597;28;20050;-74
2022/01/30 06:03:36;;;;;;;33.42;16.35;;;;;;;3.56;81.73;101823.81;4994921;28;20101;-75
2022/01/30 06:06:06;;;;;;;28.23;15.45;;;;;;;3.52;81.73;101831.16;4998029;28;20596;-74
2022/01/30 06:08:46;;;;;;;27.98;13.02;;;;;;;3.50;81.38;101823.34;4997088;28;20104;-75
2022/01/30 06:11:16;;;;;;;25.77;12.77;;;;;;;3.48;80.84;101824.94;4990353;28;20053;-76
2022/01/30 06:13:45;;;;;;;22.63;10.93;;;;;;;3.45;80.96;101822.13;4990315;28;20046;-76
2022/01/30 06:16:13;;;;;;;17.42;10.35;;;;;;;3.42;81.71;101818.47;5010546;28;20085;-76
2022/01/30 06:18:43;;;;;;;19.48;9.60;;;;;;;3.42;81.89;101811.66;5010160;28;20462;-75
2022/01/30 06:21:11;;;;;;;21.52;11.13;;;;;;;3.39;81.40;101815.66;5009861;28;20046;-78
2022/01/30 06:23:41;;;;;;;22.17;10.52;;;;;;;3.28;81.13;101809.75;5001112;28;20046;-77
2022/01/30 06:26:10;;;;;;;21.92;10.93;;;;;;;3.23;81.79;101805.91;4992334;28;20097;-76
2022/01/30 06:28:40;;;;;;;26.38;12.90;;;;;;;3.17;85.51;101808.91;5002900;28;20140;-79
2022/01/30 06:31:09;;;;;;;27.08;12.95;;;;;;;3.14;87.49;101801.91;4992338;28;20084;-78
2022/01/30 06:33:37;;;;;;;30.50;13.57;;;;;;;3.14;91.03;101814.69;5009831;28;20049;-78
2022/01/30 06:36:06;;;;;;;24.77;12.13;;;;;;;3.09;91.78;101812.53;5010555;28;20070;-76
2022/01/30 06:38:35;;;;;;;19.55;11.32;;;;;;;3.07;90.99;101809.88;5000834;28;20464;-77
2022/01/30 06:41:04;;;;;;;24.20;12.27;;;;;;;3.06;88.63;101813.22;4992878;28;20588;-77
2022/01/30 06:43:32;;;;;;;24.48;12.25;;;;;;;3.03;89.58;101812.09;5001347;28;20109;-76
2022/01/30 06:46:03;;;;;;;19.15;10.20;;;;;;;3.02;88.88;101812.84;4990264;28;20496;-76
2022/01/30 06:48:32;;;;;;;26.15;11.63;;;;;;;2.97;89.13;101817.63;4997351;28;20050;-75
2022/01/30 06:51:00;;;;;;;22.83;11.63;;;;;;;2.91;88.85;101823.16;4996734;28;20096;-77
2022/01/30 06:53:29;;;;;;;23.10;11.45;;;;;;;2.92;89.28;101831.72;5009192;28;20058;-75
2022/01/30 06:55:57;;;;;;;22.15;10.00;;;;;;;2.92;88.29;101834.28;5010771;28;20058;-76
2022/01/30 06:58:26;;;;;;;33.80;16.55;;;;;;;2.90;88.32;101835.81;4994412;28;20042;-75
2022/01/30 07:00:54;;;;;;;23.80;11.68;;;;;;;2.81;88.00;101830.00;4990810;28;20050;-76
2022/01/30 07:03:24;;;;;;;23.33;11.35;;;;;;;2.73;87.79;101826.84;4989499;28;20050;-76
2022/01/30 07:05:53;;;;;;;19.23;10.10;;;;;;;2.73;89.21;101826.84;4997495;28;20046;-74
2022/01/30 07:08:21;;;;;;;25.85;10.77;;;;;;;2.71;88.06;101815.59;5009815;28;20503;-76
2022/01/30 07:10:49;;;;;;;19.08;10.07;;;;;;;2.58;90.09;101806.06;5009186;28;20046;-74
2022/01/30 07:13:18;;;;;;;19.58;10.30;;;;;;;2.45;89.92;101795.66;4998020;28;20138;-74
2022/01/30 07:15:46;;;;;;;21.27;10.27;;;;;;;2.47;90.72;101794.13;4993902;28;20113;-74
2022/01/30 07:18:15;;;;;;;23.13;10.55;;;;;;;2.37;90.57;101783.97;5006897;28;20084;-75
2022/01/30 07:20:45;;;;;;;22.48;10.82;;;;;;;2.18;92.66;101784.19;5012261;28;20127;-75
2022/01/30 07:23:13;;;;;;;24.70;10.38;;;;;;;2.04;92.65;101776.31;4993802;28;20507;-75
2022/01/30 07:25:43;;;;;;;22.38;10.85;;;;;;;2.02;94.46;101770.19;5007452;28;20050;-75
2022/01/30 07:28:12;;;;;;;27.75;11.70;;;;;;;2.05;94.24;101754.22;5006654;28;20065;-74
2022/01/30 07:30:40;;;;;;;20.27;10.23;;;;;;;2.07;93.14;101760.34;5009458;28;20086;-73
2022/01/30 07:33:08;;;;;;;21.98;10.07;;;;;;;2.05;93.06;101759.31;5002329;28;20185;-74
2022/01/30 07:35:41;;;;;;;21.98;10.73;;;;;;;2.05;92.96;101744.00;5013667;28;20318;-74
2022/01/30 07:38:11;;;;;;;17.60;9.23;;;;;;;2.03;93.13;101738.78;5000295;28;20069;-73
2022/01/30 07:40:40;;;;;;;19.55;9.82;;;;;;;1.96;92.74;101727.97;5013628;28;20378;-74
2022/01/30 07:43:08;;;;;;;19.05;9.23;;;;;;;2.01;92.78;101745.41;5012311;28;20400;-74
2022/01/30 07:45:37;;;;;;;20.10;10.52;;;;;;;2.00;92.69;101755.53;5003122;28;20500;-74
2022/01/30 07:48:06;;;;;;;19.05;10.05;;;;;;;2.00;93.13;101755.53;4996304;28;20464;-73
2022/01/30 07:50:34;;;;;;;28.73;13.45;;;;;;;1.97;94.42;101761.28;5004723;28;20540;-74
2022/01/30 07:53:03;;;;;;;25.15;12.82;;;;;;;1.97;94.94;101762.91;4994081;28;20140;-74
2022/01/30 07:55:33;;;;;;;28.00;13.68;;;;;;;1.98;97.44;101762.16;5012991;28;20463;-74
2022/01/30 07:58:01;;;;;;;22.10;11.55;;;;;;;1.96;95.80;101750.94;5001895;28;20062;-73
2022/01/30 08:00:30;;;;;;;29.90;13.32;;;;;;;1.89;96.65;101747.88;5013948;28;20488;-74
2022/01/30 08:02:58;;;;;;;25.42;11.45;;;;;;;1.93;98.52;101751.59;5001158;28;20042;-74
2022/01/30 08:05:27;;;;;;;28.48;11.15;;;;;;;1.94;98.07;101748.25;4997968;28;20050;-74
2022/01/30 08:07:55;;;;;;;27.95;11.57;;;;;;;1.96;98.54;101749.25;5003392;28;20105;-74
2022/01/30 08:10:24;;;;;;;22.50;12.05;;;;;;;2.01;98.88;101755.63;5006823;28;20512;-74
2022/01/30 08:12:54;;;;;;;29.10;13.00;;;;;;;2.04;96.97;101762.66;4992976;28;20090;-73
2022/01/30 08:15:23;;;;;;;25.15;12.65;;;;;;;2.06;98.77;101763.66;5008385;28;20496;-73
2022/01/30 08:17:51;;;;;;;28.00;12.40;;;;;;;2.04;96.60;101757.56;5012829;28;20136;-73
2022/01/30 08:20:20;;;;;;;29.52;12.68;;;;;;;2.03;98.63;101758.31;5013487;28;20629;-73
2022/01/30 08:22:51;;;;;;;21.55;11.52;;;;;;;1.94;96.80;101743.13;4992947;28;20078;-74
2022/01/30 08:25:20;;;;;;;26.77;12.15;;;;;;;1.95;97.55;101746.59;5004752;28;20057;-74
2022/01/30 08:27:49;;;;;;;21.45;10.65;;;;;;;1.87;100.00;101749.41;5008116;28;20144;-74
2022/01/30 08:30:19;;;;;;;25.95;12.88;;;;;;;1.83;100.00;101752.50;5001604;28;20050;-74
2022/01/30 08:32:50;;;;;;;20.20;11.05;;;;;;;1.87;100.00;101745.97;4997719;28;20084;-73
2022/01/30 08:35:19;;;;;;;24.10;11.80;;;;;;;1.84;100.00;101733.88;5013249;28;20500;-74
2022/01/30 08:37:48;;;;;;;23.63;12.60;;;;;;;1.80;100.00;101730.94;5012338;28;20108;-74
2022/01/30 08:40:19;;;;;;;24.27;11.15;;;;;;;1.79;100.00;101740.28;5013056;28;20064;-74
2022/01/30 08:42:48;;;;;;;24.40;11.77;;;;;;;1.82;100.00;101740.50;5010880;28;20136;-74
2022/01/30 08:45:19;;;;;;;20.15;11.13;;;;;;;1.86;100.00;101732.34;5000178;28;20439;-75
2022/01/30 08:48:01;;;;;;;21.45;10.35;;;;;;;1.91;100.00;101734.38;4998000;28;20077;-74
2022/01/30 08:50:30;;;;;;;23.63;10.35;;;;;;;1.93;100.00;101743.03;4992833;28;20086;-75
2022/01/30 08:52:58;;;;;;;22.23;11.07;;;;;;;1.94;99.91;101753.34;5006340;28;20112;-75
2022/01/30 08:55:29;;;;;;;25.40;10.20;;;;;;;1.96;100.00;101746.72;4998975;28;20054;-75
2022/01/30 08:57:58;;;;;;;19.83;9.90;;;;;;;2.00;99.73;101755.53;5000213;28;20497;-75
2022/01/30 09:00:28;;;;;;;23.48;10.40;;;;;;;2.02;100.00;101748.88;4999489;28;20058;-74
2022/01/30 09:02:59;;;;;;;20.90;10.68;;;;;;;2.05;100.00;101746.56;5002838;28;20046;-74
2022/01/30 09:05:27;;;;;;;20.90;10.93;;;;;;;2.07;99.50;101748.47;5006210;28;20491;-74
2022/01/30 09:07:56;;;;;;;19.10;10.98;;;;;;;2.09;99.67;101746.03;4997976;28;20058;-74
2022/01/30 09:10:24;;;;;;;29.17;11.23;;;;;;;2.09;100.00;101752.03;5007109;28;20038;-74
2022/01/30 09:12:53;;;;;;;19.88;9.38;;;;;;;2.12;100.00;101759.03;5011385;28;20046;-75
2022/01/30 09:15:21;;;;;;;18.40;9.65;;;;;;;2.14;100.00;101760.06;5001285;28;20054;-74
2022/01/30 09:17:53;;;;;;;19.73;9.60;;;;;;;2.15;100.00;101761.81;5006867;28;20770;-74
2022/01/30 09:20:22;;;;;;;18.55;9.80;;;;;;;2.17;100.00;101754.28;5002846;28;20050;-75
2022/01/30 09:22:51;;;;;;;20.02;8.95;;;;;;;2.19;100.00;101751.09;5005729;28;20156;-75
2022/01/30 09:25:19;;;;;;;20.50;10.75;;;;;;;2.23;100.00;101740.34;4999342;28;20045;-75
2022/01/30 09:27:48;;;;;;;20.17;9.73;;;;;;;2.25;100.00;101727.72;5011457;28;20692;-75
2022/01/30 09:30:17;;;;;;;19.85;9.30;;;;;;;2.28;100.00;101733.06;5004688;28;20092;-75
2022/01/30 09:32:47;;;;;;;18.95;8.68;;;;;;;2.30;100.00;101736.63;4998541;28;20077;-74
2022/01/30 09:35:17;;;;;;;17.80;9.32;;;;;;;2.36;100.00;101746.41;5011229;28;20065;-75
2022/01/30 09:37:45;;;;;;;16.45;8.68;;;;;;;2.32;100.00;101741.84;5006479;28;20054;-75
2022/01/30 09:40:17;;;;;;;17.58;8.80;;;;;;;2.43;100.00;101764.03;4992208;28;20054;-75
2022/01/30 09:42:46;;;;;;;15.55;8.38;;;;;;;2.47;100.00;101769.50;5000990;28;20050;-74
2022/01/30 09:45:15;;;;;;;16.95;8.38;;;;;;;2.51;100.00;101768.06;5010561;28;20136;-74
2022/01/30 09:47:45;;;;;;;17.40;8.40;;;;;;;2.54;100.00;101760.63;5010125;28;20057;-74
2022/01/30 09:50:16;;;;;;;17.10;8.75;;;;;;;2.57;100.00;101754.88;4991703;28;20054;-75
2022/01/30 09:52:46;;;;;;;17.17;8.40;;;;;;;2.59;100.00;101751.66;5004041;28;20074;-75
2022/01/30 09:55:16;;;;;;;16.90;8.55;;;;;;;2.61;100.00;101742.47;5010631;28;20062;-74
2022/01/30 09:57:47;;;;;;;17.98;8.43;;;;;;;2.62;100.00;101745.91;4999437;28;20064;-74
2022/01/30 10:00:17;;;;;;;16.23;7.72;;;;;;;2.65;100.00;101747.00;5005409;28;20101;-74
2022/01/30 10:02:46;;;;;;;16.75;7.93;;;;;;;2.67;100.00;101735.25;4994034;28;20042;-74
2022/01/30 10:05:16;;;;;;;13.68;7.88;;;;;;;2.72;100.00;101731.38;5007677;28;20139;-74
2022/01/30 10:07:51;;;;;;;14.90;7.72;;;;;;;2.77;100.00;101735.94;5010592;28;20117;-74
2022/01/30 10:10:23;;;;;;;19.10;8.35;;;;;;;2.80;100.00;101731.09;5010286;28;20241;-74
2022/01/30 10:13:03;;;;;;;16.35;8.00;;;;;;;2.82;100.00;101725.31;5010499;28;20053;-74
2022/01/30 10:15:33;;;;;;;14.32;7.15;;;;;;;2.82;100.00;101719.28;5008832;28;20049;-75
2022/01/30 10:18:06;;;;;;;21.10;7.75;;;;;;;2.73;100.00;101720.41;4991614;28;20336;-75
2022/01/30 10:20:38;;;;;;;17.88;8.48;;;;;;;2.67;100.00;101719.03;5005928;28;20491;-74
2022/01/30 10:23:09;;;;;;;16.80;8.40;;;;;;;2.63;100.00;101717.88;5002031;28;20050;-75
2022/01/30 10:25:39;;;;;;;16.35;8.07;;;;;;;2.62;100.00;101715.25;5005293;28;20050;-74
2022/01/30 10:28:10;;;;;;;17.25;8.35;;;;;;;2.62;100.00;101715.25;5010669;28;20046;-74
2022/01/30 10:30:44;;;;;;;15.50;8.88;;;;;;;2.62;100.00;101712.69;5006327;28;20132;-74
2022/01/30 10:33:13;;;;;;;18.00;9.63;;;;;;;2.56;100.00;101720.75;5001517;28;20107;-74
2022/01/30 10:35:51;;;;;;;17.05;8.32;;;;;;;2.56;100.00;101728.41;5009904;28;20137;-74
2022/01/30 10:38:23;;;;;;;18.63;8.57;;;;;;;2.61;100.00;101726.22;5002622;28;20046;-74
2022/01/30 10:40:57;;;;;;;16.13;7.35;;;;;;;2.66;100.00;101718.16;5004795;28;20050;-74
2022/01/30 10:43:50;;;;;;;22.00;9.10;;;;;;;2.71;100.00;101711.72;5002771;28;20050;-74
2022/01/30 10:46:19;;;;;;;15.60;8.38;;;;;;;2.74;100.00;101718.72;4991601;28;20042;-74
2022/01/30 10:48:56;;;;;;;22.75;11.35;;;;;;;2.79;100.00;101731.84;5003077;28;20050;-75
2022/01/30 10:51:26;;;;;;;17.90;7.72;;;;;;;2.82;100.00;101724.41;5002364;28;20562;-75
2022/01/30 10:53:57;;;;;;;21.30;9.25;;;;;;;2.77;100.00;101712.94;4997033;28;20046;-75
2022/01/30 10:56:27;;;;;;;15.07;8.02;;;;;;;2.68;100.00;101716.59;5009819;28;20081;-74
2022/01/30 10:59:10;;;;;;;16.17;8.98;;;;;;;2.69;100.00;101733.69;5009573;28;20120;-74
2022/01/30 11:01:39;;;;;;;18.83;8.75;;;;;;;2.66;100.00;101747.94;5275353;23;20061;-81
2022/01/30 11:04:08;;;;;;;21.75;9.10;;;;;;;2.78;100.00;101768.41;5027100;28;20548;-79
2022/01/30 11:06:40;;;;;;;19.45;9.45;;;;;;;2.82;100.00;101762.75;5027463;28;20093;-79
2022/01/30 11:09:17;;;;;;;18.50;8.25;;;;;;;2.85;100.00;101756.22;5012859;28;20096;-79
2022/01/30 11:11:50;;;;;;;15.75;8.38;;;;;;;2.90;100.00;101742.13;5023141;28;20072;-79
2022/01/30 11:14:22;;;;;;;13.65;7.53;;;;;;;2.87;100.00;101741.00;5025729;28;20362;-79
2022/01/30 11:17:02;;;;;;;15.65;8.02;;;;;;;2.87;100.00;101733.34;5010939;28;20061;-79
2022/01/30 11:19:34;;;;;;;17.63;8.73;;;;;;;2.85;100.00;101730.66;5028366;28;20045;-79
2022/01/30 11:22:05;;;;;;;21.55;9.23;;;;;;;2.80;100.00;101723.44;5018210;28;20069;-79
2022/01/30 11:24:36;;;;;;;18.25;8.82;;;;;;;2.79;100.00;101729.28;5029118;28;20038;-80
2022/01/30 11:27:06;;;;;;;23.13;10.40;;;;;;;2.81;100.00;101736.31;5029190;28;20136;-79
2022/01/30 11:29:38;;;;;;;17.23;7.97;;;;;;;2.86;100.00;101736.66;5029553;28;20514;-79
2022/01/30 11:32:08;;;;;;;22.20;9.90;;;;;;;2.91;100.00;101740.47;5020933;28;20049;-79
2022/01/30 11:34:37;;;;;;;18.60;8.93;;;;;;;2.95;100.00;101745.00;5010780;28;20111;-79
2022/01/30 11:37:08;;;;;;;20.38;9.32;;;;;;;2.93;100.00;101733.78;5029643;28;20107;-79
2022/01/30 11:39:43;;;;;;;20.05;9.65;;;;;;;2.98;100.00;101746.91;5021308;28;20052;-79
2022/01/30 11:42:14;;;;;;;15.75;8.48;;;;;;;3.03;100.00;101753.28;5009223;28;20050;-79
2022/01/30 11:44:43;;;;;;;18.20;9.45;;;;;;;2.97;100.00;101734.91;5023543;28;20046;-79
2022/01/30 11:47:25;;;;;;;16.05;8.45;;;;;;;2.99;100.00;101754.72;5024567;28;20046;-80
2022/01/30 11:50:11;;;;;;;15.57;8.48;;;;;;;3.04;100.00;101755.94;5026721;28;20050;-79
2022/01/30 11:52:59;;;;;;;18.58;8.70;;;;;;;3.02;100.00;101754.03;5021520;28;20168;-79
2022/01/30 11:55:56;;;;;;;18.15;8.98;;;;;;;2.95;100.00;101742.47;5024105;28;20064;-79
2022/01/30 11:58:55;;;;;;;17.52;9.23;;;;;;;2.97;100.00;101746.03;5009023;28;20046;-78
2022/01/30 12:01:38;;;;;;;18.40;8.82;;;;;;;3.03;100.00;101741.38;4995723;28;20054;-78
2022/01/30 12:04:10;;;;;;;15.40;8.05;;;;;;;2.98;100.00;101732.50;5022269;28;20133;-79
2022/01/30 12:06:39;;;;;;;17.20;8.60;;;;;;;3.02;100.00;101733.59;5015236;28;20057;-79
2022/01/30 12:09:29;;;;;;;20.75;9.63;;;;;;;3.07;100.00;101722.03;5024049;28;20042;-78